createdAt,value
2019-05-12T00:00:24.592Z,304.48
2019-05-12T00:01:24.567Z,304.49
2019-05-12T00:02:24.560Z,304.97
2019-05-12T00:03:24.556Z,304.52
2019-05-12T00:04:24.542Z,304.60
2019-05-12T00:05:24.527Z,304.44
2019-05-12T00:06:24.518Z,304.49
2019-05-12T00:07:24.505Z,304.71
2019-05-12T00:08:24.501Z,304.90
2019-05-12T00:09:24.480Z,304.92
2019-05-12T00:10:24.461Z,304.30
2019-05-12T00:11:24.463Z,304.34
2019-05-12T00:12:24.458Z,304.31
2019-05-12T00:13:24.435Z,304.60
2019-05-12T00:14:24.436Z,304.02
2019-05-12T00:15:24.415Z,304.61
2019-05-12T00:16:24.399Z,304.62
2019-05-12T00:17:24.412Z,304.45
2019-05-12T00:18:24.397Z,304.36
2019-05-12T00:19:24.385Z,304.45
2019-05-12T00:20:24.369Z,304.74
2019-05-12T00:21:24.338Z,304.77
2019-05-12T00:22:24.335Z,304.19
2019-05-12T00:23:27.976Z,304.37
2019-05-12T00:24:25.330Z,304.60
2019-05-12T00:25:24.306Z,304.67
2019-05-12T00:26:24.296Z,304.76
2019-05-12T00:27:24.278Z,304.75
2019-05-12T00:28:24.266Z,304.99
2019-05-12T00:29:24.282Z,304.12
2019-05-12T00:30:24.253Z,304.49
2019-05-12T00:31:24.250Z,304.72
2019-05-12T00:32:24.236Z,304.44
2019-05-12T00:33:24.212Z,304.98
2019-05-12T00:34:24.223Z,305.16
2019-05-12T00:35:24.197Z,304.53
2019-05-12T00:36:24.184Z,304.18
2019-05-12T00:37:24.178Z,304.17
2019-05-12T00:38:24.173Z,304.88
2019-05-12T00:39:24.165Z,304.68
2019-05-12T00:40:24.147Z,304.80
2019-05-12T00:41:24.136Z,304.90
2019-05-12T00:42:24.124Z,304.95
2019-05-12T00:43:24.116Z,304.76
2019-05-12T00:44:24.123Z,304.78
2019-05-12T00:45:24.082Z,304.99
2019-05-12T00:46:24.075Z,305.02
2019-05-12T00:47:24.075Z,304.85
2019-05-12T00:48:24.056Z,304.68
2019-05-12T00:49:24.071Z,304.85
2019-05-12T00:50:24.047Z,304.90
2019-05-12T00:51:24.024Z,304.71
2019-05-12T00:52:24.018Z,304.61
2019-05-12T00:53:36.178Z,304.55
2019-05-12T00:54:25.007Z,304.65
2019-05-12T00:55:23.982Z,304.81
2019-05-12T00:56:23.970Z,304.78
2019-05-12T00:57:23.955Z,304.84
2019-05-12T00:58:23.951Z,304.50
2019-05-12T00:59:23.933Z,304.93
2019-05-12T01:00:23.938Z,304.99
2019-05-12T01:01:23.919Z,304.90
2019-05-12T01:02:23.916Z,305.00
2019-05-12T01:03:23.897Z,304.82
2019-05-12T01:04:23.894Z,304.35
2019-05-12T01:05:23.877Z,304.86
2019-05-12T01:06:23.851Z,304.79
2019-05-12T01:07:23.850Z,304.61
2019-05-12T01:08:23.845Z,304.81
2019-05-12T01:09:23.826Z,304.44
2019-05-12T01:10:23.820Z,305.08
2019-05-12T01:11:23.811Z,304.58
2019-05-12T01:12:23.800Z,304.70
2019-05-12T01:13:23.782Z,304.92
2019-05-12T01:14:23.785Z,304.84
2019-05-12T01:15:23.774Z,304.61
2019-05-12T01:16:23.750Z,304.61
2019-05-12T01:17:23.744Z,304.70
2019-05-12T01:18:23.727Z,305.02
2019-05-12T01:19:23.709Z,304.92
2019-05-12T01:20:23.721Z,304.73
2019-05-12T01:21:23.706Z,305.10
2019-05-12T01:22:23.689Z,305.21
2019-05-12T01:23:23.759Z,304.55
2019-05-12T01:24:23.661Z,304.70
2019-05-12T01:25:23.662Z,304.76
2019-05-12T01:26:23.664Z,304.55
2019-05-12T01:27:23.636Z,304.83
2019-05-12T01:28:23.620Z,304.83
2019-05-12T01:29:23.593Z,304.88
2019-05-12T01:30:23.599Z,305.04
2019-05-12T01:31:23.583Z,304.58
2019-05-12T01:32:23.576Z,304.83
2019-05-12T01:33:23.558Z,305.05
2019-05-12T01:34:23.543Z,304.95
2019-05-12T01:35:23.544Z,304.99
2019-05-12T01:36:23.522Z,304.88
2019-05-12T01:37:23.527Z,304.83
2019-05-12T01:38:23.514Z,304.90
2019-05-12T01:39:23.495Z,305.28
2019-05-12T01:40:23.496Z,304.65
2019-05-12T01:41:23.470Z,304.97
2019-05-12T01:42:23.483Z,304.60
2019-05-12T01:43:23.438Z,304.69
2019-05-12T01:44:23.436Z,304.58
2019-05-12T01:45:23.454Z,304.21
2019-05-12T01:46:23.426Z,304.84
2019-05-12T01:47:23.408Z,305.06
2019-05-12T01:48:23.394Z,305.17
2019-05-12T01:49:23.387Z,305.22
2019-05-12T01:50:23.392Z,305.43
2019-05-12T01:51:23.365Z,305.02
2019-05-12T01:52:23.356Z,304.87
2019-05-12T01:53:23.338Z,304.76
2019-05-12T01:54:23.326Z,304.72
2019-05-12T01:55:23.320Z,305.02
2019-05-12T01:56:23.304Z,305.13
2019-05-12T01:57:23.305Z,304.77
2019-05-12T01:58:23.292Z,304.80
2019-05-12T01:59:23.278Z,304.96
2019-05-12T02:00:23.286Z,305.57
2019-05-12T02:01:23.247Z,304.69
2019-05-12T02:02:23.235Z,305.08
2019-05-12T02:03:23.243Z,305.13
2019-05-12T02:04:23.223Z,305.00
2019-05-12T02:05:23.232Z,305.08
2019-05-12T02:06:23.198Z,304.88
2019-05-12T02:07:23.191Z,305.47
2019-05-12T02:08:23.176Z,304.78
2019-05-12T02:09:23.182Z,304.98
2019-05-12T02:10:23.174Z,304.38
2019-05-12T02:11:23.141Z,305.23
2019-05-12T02:12:23.144Z,304.94
2019-05-12T02:13:23.116Z,305.33
2019-05-12T02:14:23.116Z,305.49
2019-05-12T02:15:23.110Z,305.22
2019-05-12T02:16:23.093Z,304.92
2019-05-12T02:17:23.086Z,305.40
2019-05-12T02:18:23.074Z,305.23
2019-05-12T02:19:23.060Z,304.86
2019-05-12T02:20:23.043Z,304.45
2019-05-12T02:21:23.061Z,305.26
2019-05-12T02:22:23.026Z,304.95
2019-05-12T02:23:23.015Z,304.79
2019-05-12T02:24:27.129Z,305.42
2019-05-12T02:25:23.982Z,304.96
2019-05-12T02:26:22.989Z,304.92
2019-05-12T02:27:22.953Z,305.30
2019-05-12T02:28:22.951Z,304.75
2019-05-12T02:29:22.983Z,304.92
2019-05-12T02:30:22.949Z,305.42
2019-05-12T02:31:22.955Z,304.88
2019-05-12T02:32:25.299Z,305.06
2019-05-12T02:33:24.426Z,304.85
2019-05-12T02:34:25.429Z,305.05
2019-05-12T02:35:24.740Z,304.92
2019-05-12T02:36:25.750Z,305.14
2019-05-12T02:37:26.020Z,305.01
2019-05-12T02:38:25.150Z,304.90
2019-05-12T02:39:24.900Z,305.36
2019-05-12T02:40:25.155Z,305.05
2019-05-12T02:41:25.634Z,305.32
2019-05-12T02:42:24.395Z,304.82
2019-05-12T02:43:24.370Z,305.15
2019-05-12T02:44:24.821Z,304.86
2019-05-12T02:45:25.230Z,305.00
2019-05-12T02:46:25.564Z,305.16
2019-05-12T02:47:24.161Z,304.82
2019-05-12T02:48:24.566Z,304.95
2019-05-12T02:49:24.419Z,305.20
2019-05-12T02:50:24.765Z,305.09
2019-05-12T02:51:24.813Z,304.67
2019-05-12T02:52:24.906Z,305.05
2019-05-12T02:53:24.861Z,304.76
2019-05-12T02:54:26.980Z,305.10
2019-05-12T02:55:25.767Z,305.15
2019-05-12T02:56:25.724Z,305.27
2019-05-12T02:57:25.509Z,305.13
2019-05-12T02:58:25.398Z,305.65
2019-05-12T02:59:25.296Z,304.47
2019-05-12T03:00:24.199Z,305.07
2019-05-12T03:01:24.475Z,304.80
2019-05-12T03:02:24.420Z,305.10
2019-05-12T03:03:25.096Z,305.51
2019-05-12T03:04:24.766Z,304.84
2019-05-12T03:05:24.835Z,305.26
2019-05-12T03:06:25.186Z,305.20
2019-05-12T03:07:25.319Z,304.53
2019-05-12T03:08:25.354Z,304.95
2019-05-12T03:09:24.367Z,304.92
2019-05-12T03:10:25.298Z,304.84
2019-05-12T03:11:24.840Z,305.40
2019-05-12T03:12:25.470Z,305.19
2019-05-12T03:13:25.318Z,305.21
2019-05-12T03:14:25.209Z,305.11
2019-05-12T03:15:25.090Z,305.10
2019-05-12T03:16:25.425Z,304.87
2019-05-12T03:17:25.243Z,304.75
2019-05-12T03:18:25.222Z,305.30
2019-05-12T03:19:25.049Z,304.87
2019-05-12T03:20:24.166Z,304.96
2019-05-12T03:21:24.531Z,304.56
2019-05-12T03:22:25.279Z,305.10
2019-05-12T03:23:24.816Z,305.33
2019-05-12T03:24:25.013Z,305.11
2019-05-12T03:25:29.045Z,305.27
2019-05-12T03:26:24.615Z,304.87
2019-05-12T03:27:25.510Z,304.87
2019-05-12T03:28:25.470Z,305.52
2019-05-12T03:29:24.849Z,304.64
2019-05-12T03:30:28.414Z,304.98
2019-05-12T03:31:30.556Z,305.14
2019-05-12T03:32:27.774Z,305.03
2019-05-12T03:33:33.602Z,305.50
2019-05-12T03:34:28.747Z,304.97
2019-05-12T03:35:32.185Z,305.42
2019-05-12T03:36:31.954Z,305.44
2019-05-12T03:37:30.876Z,304.69
2019-05-12T03:38:24.857Z,305.28
2019-05-12T03:39:24.822Z,305.21
2019-05-12T03:40:24.948Z,305.02
2019-05-12T03:41:24.897Z,305.26
2019-05-12T03:42:25.091Z,304.99
2019-05-12T03:43:24.349Z,305.16
2019-05-12T03:44:25.007Z,304.77
2019-05-12T03:45:24.893Z,305.25
2019-05-12T03:46:24.827Z,305.20
2019-05-12T03:47:25.138Z,305.18
2019-05-12T03:48:25.081Z,305.27
2019-05-12T03:49:24.449Z,305.24
2019-05-12T03:50:24.376Z,304.81
2019-05-12T03:51:25.081Z,305.53
2019-05-12T03:52:24.336Z,305.39
2019-05-12T03:53:24.782Z,305.27
2019-05-12T03:54:24.403Z,305.46
2019-05-12T03:55:34.328Z,305.17
2019-05-12T03:56:26.009Z,305.48
2019-05-12T03:57:25.086Z,305.19
2019-05-12T03:58:25.323Z,305.01
2019-05-12T03:59:21.959Z,305.02
2019-05-12T04:00:24.729Z,305.14
2019-05-12T04:01:25.183Z,305.45
2019-05-12T04:02:24.917Z,305.28
2019-05-12T04:03:24.737Z,305.16
2019-05-12T04:04:24.420Z,305.27
2019-05-12T04:05:24.364Z,305.61
2019-05-12T04:06:24.487Z,305.42
2019-05-12T04:07:24.375Z,305.42
2019-05-12T04:08:24.641Z,305.41
2019-05-12T04:09:24.381Z,305.21
2019-05-12T04:10:24.511Z,304.83
2019-05-12T04:11:24.719Z,305.48
2019-05-12T04:12:25.168Z,305.33
2019-05-12T04:13:21.850Z,305.32
2019-05-12T04:14:24.843Z,305.47
2019-05-12T04:15:21.781Z,304.79
2019-05-12T04:16:24.685Z,304.88
2019-05-12T04:17:24.366Z,304.95
2019-05-12T04:18:24.550Z,305.08
2019-05-12T04:19:24.714Z,305.77
2019-05-12T04:20:21.734Z,305.12
2019-05-12T04:21:24.264Z,305.63
2019-05-12T04:22:24.738Z,305.67
2019-05-12T04:23:24.549Z,305.02
2019-05-12T04:24:24.756Z,305.23
2019-05-12T04:25:24.775Z,305.18
2019-05-12T04:26:25.066Z,305.34
2019-05-12T04:27:24.855Z,305.36
2019-05-12T04:28:24.347Z,305.63
2019-05-12T04:29:24.844Z,305.17
2019-05-12T04:30:24.765Z,305.06
2019-05-12T04:31:24.470Z,305.17
2019-05-12T04:32:24.662Z,305.20
2019-05-12T04:33:21.582Z,305.55
2019-05-12T04:34:24.870Z,305.63
2019-05-12T04:35:24.863Z,304.90
2019-05-12T04:36:24.585Z,305.62
2019-05-12T04:37:24.779Z,305.71
2019-05-12T04:38:24.679Z,304.98
2019-05-12T04:39:21.521Z,305.45
2019-05-12T04:40:24.618Z,305.40
2019-05-12T04:41:21.488Z,305.70
2019-05-12T04:42:24.853Z,305.03
2019-05-12T04:43:25.050Z,305.22
2019-05-12T04:44:24.873Z,305.62
2019-05-12T04:45:21.439Z,305.51
2019-05-12T04:46:21.433Z,305.80
2019-05-12T04:47:21.437Z,305.28
2019-05-12T04:48:21.697Z,305.17
2019-05-12T04:49:24.707Z,305.45
2019-05-12T04:50:24.272Z,304.98
2019-05-12T04:51:21.389Z,305.25
2019-05-12T04:52:24.637Z,305.05
2019-05-12T04:53:24.875Z,305.19
2019-05-12T04:54:24.360Z,305.16
2019-05-12T04:55:21.336Z,305.48
2019-05-12T04:56:24.739Z,305.55
2019-05-12T04:57:21.569Z,305.81
2019-05-12T04:58:21.322Z,305.32
2019-05-12T04:59:21.295Z,305.35
2019-05-12T05:00:21.282Z,305.90
2019-05-12T05:01:21.286Z,305.38
2019-05-12T05:02:24.573Z,305.69
2019-05-12T05:03:21.260Z,305.36
2019-05-12T05:04:24.102Z,305.51
2019-05-12T05:05:21.222Z,305.56
2019-05-12T05:06:21.209Z,305.31
2019-05-12T05:07:24.183Z,305.49
2019-05-12T05:08:24.114Z,304.96
2019-05-12T05:09:24.386Z,305.67
2019-05-12T05:10:21.177Z,305.24
2019-05-12T05:11:21.169Z,305.72
2019-05-12T05:12:23.744Z,305.64
2019-05-12T05:13:21.133Z,306.12
2019-05-12T05:14:21.126Z,305.37
2019-05-12T05:15:21.119Z,305.34
2019-05-12T05:16:21.112Z,305.49
2019-05-12T05:17:24.185Z,305.13
2019-05-12T05:18:21.076Z,305.20
2019-05-12T05:19:21.064Z,305.15
2019-05-12T05:20:21.060Z,305.22
2019-05-12T05:21:21.059Z,305.64
2019-05-12T05:22:21.036Z,305.87
2019-05-12T05:23:21.042Z,305.37
2019-05-12T05:24:23.417Z,305.72
2019-05-12T05:25:21.007Z,305.64
2019-05-12T05:26:27.350Z,305.05
2019-05-12T05:27:21.976Z,305.34
2019-05-12T05:28:20.980Z,305.50
2019-05-12T05:29:20.970Z,305.24
2019-05-12T05:30:20.953Z,305.09
2019-05-12T05:31:20.943Z,305.44
2019-05-12T05:32:23.173Z,305.46
2019-05-12T05:33:20.938Z,305.89
2019-05-12T05:34:20.910Z,305.46
2019-05-12T05:35:20.892Z,305.24
2019-05-12T05:36:20.883Z,305.32
2019-05-12T05:37:20.863Z,304.99
2019-05-12T05:38:21.014Z,305.55
2019-05-12T05:39:20.842Z,305.59
2019-05-12T05:40:28.461Z,305.54
2019-05-12T05:41:23.930Z,305.17
2019-05-12T05:42:22.044Z,305.32
2019-05-12T05:43:24.049Z,305.28
2019-05-12T05:44:20.806Z,305.11
2019-05-12T05:45:24.183Z,305.48
2019-05-12T05:46:23.939Z,305.34
2019-05-12T05:47:25.662Z,305.42
2019-05-12T05:48:24.012Z,305.20
2019-05-12T05:49:20.738Z,305.18
2019-05-12T05:50:24.810Z,305.59
2019-05-12T05:51:23.735Z,304.74
2019-05-12T05:52:24.608Z,304.92
2019-05-12T05:53:21.708Z,304.96
2019-05-12T05:54:24.736Z,305.38
2019-05-12T05:55:23.334Z,305.36
2019-05-12T05:56:20.673Z,304.93
2019-05-12T05:57:25.696Z,304.67
2019-05-12T05:58:21.684Z,304.99
2019-05-12T05:59:21.899Z,304.91
2019-05-12T06:00:26.029Z,305.39
2019-05-12T06:01:20.614Z,305.11
2019-05-12T06:02:25.504Z,305.37
2019-05-12T06:03:27.205Z,305.63
2019-05-12T06:04:23.666Z,304.97
2019-05-12T06:05:26.319Z,305.08
2019-05-12T06:06:23.666Z,305.57
2019-05-12T06:07:23.941Z,305.06
2019-05-12T06:08:23.696Z,305.14
2019-05-12T06:09:20.518Z,305.66
2019-05-12T06:10:20.500Z,305.15
2019-05-12T06:11:26.513Z,305.49
2019-05-12T06:12:23.546Z,305.51
2019-05-12T06:13:21.234Z,305.18
2019-05-12T06:14:23.572Z,305.52
2019-05-12T06:15:20.458Z,305.68
2019-05-12T06:16:22.829Z,305.26
2019-05-12T06:17:20.429Z,305.49
2019-05-12T06:18:20.429Z,306.23
2019-05-12T06:19:23.481Z,305.43
2019-05-12T06:20:23.683Z,306.07
2019-05-12T06:21:20.378Z,306.12
2019-05-12T06:22:20.369Z,306.26
2019-05-12T06:23:20.371Z,306.23
2019-05-12T06:24:20.370Z,306.23
2019-05-12T06:25:20.361Z,306.48
2019-05-12T06:26:20.948Z,305.85
2019-05-12T06:27:21.345Z,306.42
2019-05-12T06:28:20.310Z,305.69
2019-05-12T06:29:21.999Z,306.04
2019-05-12T06:30:20.279Z,306.95
2019-05-12T06:31:25.234Z,307.18
2019-05-12T06:32:21.251Z,306.95
2019-05-12T06:33:22.820Z,307.55
2019-05-12T06:34:21.263Z,307.24
2019-05-12T06:35:20.222Z,307.35
2019-05-12T06:36:22.160Z,307.94
2019-05-12T06:37:20.218Z,307.81
2019-05-12T06:38:20.224Z,307.92
2019-05-12T06:39:20.857Z,307.20
2019-05-12T06:40:20.186Z,308.07
2019-05-12T06:41:21.326Z,307.94
2019-05-12T06:42:20.142Z,308.15
2019-05-12T06:43:20.169Z,307.48
2019-05-12T06:44:20.145Z,307.58
2019-05-12T06:45:20.125Z,307.70
2019-05-12T06:46:22.991Z,307.61
2019-05-12T06:47:21.104Z,307.29
2019-05-12T06:48:25.672Z,307.22
2019-05-12T06:49:21.077Z,307.38
2019-05-12T06:50:20.057Z,307.05
2019-05-12T06:51:23.680Z,306.56
2019-05-12T06:52:21.040Z,307.23
2019-05-12T06:53:24.958Z,306.90
2019-05-12T06:54:21.019Z,306.17
2019-05-12T06:55:19.997Z,306.68
2019-05-12T06:56:20.075Z,306.24
2019-05-12T06:57:25.192Z,306.83
2019-05-12T06:58:26.786Z,307.12
2019-05-12T06:59:23.590Z,306.50
2019-05-12T07:00:22.260Z,307.00
2019-05-12T07:01:20.937Z,307.18
2019-05-12T07:02:19.927Z,307.29
2019-05-12T07:03:28.420Z,307.07
2019-05-12T07:04:23.409Z,307.47
2019-05-12T07:05:19.899Z,307.61
2019-05-12T07:06:20.093Z,307.94
2019-05-12T07:07:19.896Z,307.33
2019-05-12T07:08:26.302Z,307.48
2019-05-12T07:09:25.135Z,307.23
2019-05-12T07:10:36.743Z,307.71
2019-05-12T07:11:20.859Z,307.38
2019-05-12T07:12:24.947Z,307.72
2019-05-12T07:13:24.627Z,307.89
2019-05-12T07:14:23.164Z,307.38
2019-05-12T07:15:22.853Z,307.33
2019-05-12T07:16:23.785Z,307.78
2019-05-12T07:17:20.767Z,307.52
2019-05-12T07:18:24.371Z,307.55
2019-05-12T07:19:22.627Z,306.94
2019-05-12T07:20:19.741Z,307.81
2019-05-12T07:21:23.639Z,306.83
2019-05-12T07:22:23.401Z,306.46
2019-05-12T07:23:25.991Z,306.76
2019-05-12T07:24:20.710Z,306.09
2019-05-12T07:25:24.539Z,306.86
2019-05-12T07:26:20.665Z,306.47
2019-05-12T07:27:32.237Z,306.02
2019-05-12T07:28:20.640Z,306.46
2019-05-12T07:29:19.654Z,306.38
2019-05-12T07:30:19.646Z,306.77
2019-05-12T07:31:19.629Z,307.33
2019-05-12T07:32:21.782Z,306.58
2019-05-12T07:33:19.618Z,306.26
2019-05-12T07:34:19.614Z,306.71
2019-05-12T07:35:19.585Z,306.80
2019-05-12T07:36:19.557Z,306.34
2019-05-12T07:37:19.554Z,306.38
2019-05-12T07:38:21.559Z,307.20
2019-05-12T07:39:19.538Z,306.86
2019-05-12T07:40:25.652Z,306.79
2019-05-12T07:41:20.510Z,306.55
2019-05-12T07:42:22.683Z,306.32
2019-05-12T07:43:20.868Z,306.35
2019-05-12T07:44:22.191Z,305.79
2019-05-12T07:45:22.389Z,305.90
2019-05-12T07:46:19.451Z,305.50
2019-05-12T07:47:24.631Z,305.24
2019-05-12T07:48:20.424Z,305.19
2019-05-12T07:49:22.016Z,305.17
2019-05-12T07:50:24.270Z,304.93
2019-05-12T07:51:20.406Z,304.87
2019-05-12T07:52:19.400Z,305.37
2019-05-12T07:53:19.388Z,305.28
2019-05-12T07:54:19.384Z,305.16
2019-05-12T07:55:19.387Z,305.36
2019-05-12T07:56:24.359Z,305.38
2019-05-12T07:57:20.332Z,305.10
2019-05-12T07:58:19.670Z,305.37
2019-05-12T07:59:19.316Z,305.43
2019-05-12T08:00:25.174Z,305.15
2019-05-12T08:01:20.304Z,304.90
2019-05-12T08:02:23.178Z,304.95
2019-05-12T08:03:21.426Z,305.12
2019-05-12T08:04:19.278Z,305.70
2019-05-12T08:05:21.241Z,305.62
2019-05-12T08:06:19.243Z,304.98
2019-05-12T08:07:19.766Z,305.42
2019-05-12T08:08:20.243Z,304.98
2019-05-12T08:09:24.108Z,304.43
2019-05-12T08:10:20.389Z,304.87
2019-05-12T08:11:19.194Z,305.33
2019-05-12T08:12:20.946Z,305.17
2019-05-12T08:13:19.186Z,304.15
2019-05-12T08:14:25.887Z,304.39
2019-05-12T08:15:20.204Z,304.78
2019-05-12T08:16:19.530Z,304.33
2019-05-12T08:17:20.134Z,304.38
2019-05-12T08:18:19.122Z,304.56
2019-05-12T08:19:23.913Z,304.61
2019-05-12T08:20:20.114Z,304.51
2019-05-12T08:21:19.105Z,303.82
2019-05-12T08:22:24.324Z,303.96
2019-05-12T08:23:20.076Z,304.49
2019-05-12T08:24:19.075Z,304.17
2019-05-12T08:25:27.098Z,303.81
2019-05-12T08:26:20.038Z,304.21
2019-05-12T08:27:19.039Z,303.89
2019-05-12T08:28:24.421Z,304.89
2019-05-12T08:29:21.443Z,303.89
2019-05-12T08:30:19.022Z,304.20
2019-05-12T08:31:23.547Z,304.27
2019-05-12T08:32:20.414Z,304.34
2019-05-12T08:33:18.979Z,303.65
2019-05-12T08:34:18.984Z,303.79
2019-05-12T08:35:25.559Z,304.14
2019-05-12T08:36:23.443Z,303.35
2019-05-12T08:37:18.932Z,303.63
2019-05-12T08:38:18.923Z,303.84
2019-05-12T08:39:22.856Z,303.21
2019-05-12T08:40:19.909Z,303.36
2019-05-12T08:41:18.941Z,302.49
2019-05-12T08:42:18.918Z,302.93
2019-05-12T08:43:18.878Z,303.40
2019-05-12T08:44:24.596Z,303.42
2019-05-12T08:45:25.737Z,302.89
2019-05-12T08:46:19.870Z,303.00
2019-05-12T08:47:18.847Z,302.60
2019-05-12T08:48:21.638Z,302.84
2019-05-12T08:49:19.818Z,302.84
2019-05-12T08:50:25.591Z,302.47
2019-05-12T08:51:20.222Z,302.14
2019-05-12T08:52:18.786Z,302.21
2019-05-12T08:53:20.884Z,301.78
2019-05-12T08:54:18.780Z,302.06
2019-05-12T08:55:25.163Z,301.65
2019-05-12T08:56:22.958Z,302.27
2019-05-12T08:57:19.734Z,301.51
2019-05-12T08:58:30.106Z,301.49
2019-05-12T08:59:24.908Z,301.67
2019-05-12T09:00:19.710Z,301.48
2019-05-12T09:01:20.269Z,301.31
2019-05-12T09:02:19.696Z,301.66
2019-05-12T09:03:20.322Z,301.76
2019-05-12T09:04:19.669Z,302.04
2019-05-12T09:05:18.666Z,301.22
2019-05-12T09:06:19.803Z,301.67
2019-05-12T09:07:18.690Z,301.53
2019-05-12T09:08:18.633Z,301.30
2019-05-12T09:09:18.620Z,301.34
2019-05-12T09:10:18.601Z,301.24
2019-05-12T09:11:18.618Z,301.60
2019-05-12T09:12:18.592Z,301.42
2019-05-12T09:13:18.585Z,300.99
2019-05-12T09:14:18.587Z,300.44
2019-05-12T09:15:18.559Z,301.12
2019-05-12T09:16:18.567Z,300.68
2019-05-12T09:17:18.553Z,299.84
2019-05-12T09:18:19.073Z,300.51
2019-05-12T09:19:23.867Z,300.57
2019-05-12T09:20:19.540Z,299.87
2019-05-12T09:21:23.740Z,300.19
2019-05-12T09:22:20.902Z,300.33
2019-05-12T09:23:18.492Z,300.80
2019-05-12T09:24:21.754Z,301.04
2019-05-12T09:25:19.467Z,300.64
2019-05-12T09:26:23.680Z,300.08
2019-05-12T09:27:19.453Z,300.87
2019-05-12T09:28:18.450Z,300.46
2019-05-12T09:29:18.420Z,301.41
2019-05-12T09:30:18.408Z,300.81
2019-05-12T09:31:19.462Z,301.12
2019-05-12T09:32:19.422Z,300.80
2019-05-12T09:33:21.275Z,300.56
2019-05-12T09:34:19.376Z,300.80
2019-05-12T09:35:18.365Z,300.53
2019-05-12T09:36:21.472Z,300.48
2019-05-12T09:37:18.367Z,300.49
2019-05-12T09:38:23.124Z,299.90
2019-05-12T09:39:19.331Z,300.33
2019-05-12T09:40:20.633Z,300.59
2019-05-12T09:41:18.317Z,300.56
2019-05-12T09:42:19.210Z,300.95
2019-05-12T09:43:19.281Z,300.66
2019-05-12T09:44:20.288Z,300.65
2019-05-12T09:45:19.290Z,300.60
2019-05-12T09:46:18.270Z,301.01
2019-05-12T09:47:23.002Z,300.89
2019-05-12T09:48:19.238Z,300.85
2019-05-12T09:49:24.874Z,300.11
2019-05-12T09:50:20.445Z,300.19
2019-05-12T09:51:18.216Z,300.20
2019-05-12T09:52:22.083Z,300.34
2019-05-12T09:53:19.186Z,300.88
2019-05-12T09:54:18.173Z,301.28
2019-05-12T09:55:18.170Z,301.19
2019-05-12T09:56:18.165Z,300.70
2019-05-12T09:57:18.170Z,300.78
2019-05-12T09:58:23.251Z,300.69
2019-05-12T09:59:22.990Z,300.46
2019-05-12T10:00:19.125Z,300.95
2019-05-12T10:01:18.112Z,300.41
2019-05-12T10:02:20.704Z,300.53
2019-05-12T10:03:18.096Z,300.81
2019-05-12T10:04:19.742Z,300.30
2019-05-12T10:05:18.071Z,300.55
2019-05-12T10:06:21.255Z,300.78
2019-05-12T10:07:18.066Z,299.98
2019-05-12T10:08:18.050Z,300.90
2019-05-12T10:09:19.838Z,300.72
2019-05-12T10:10:18.032Z,301.15
2019-05-12T10:11:20.773Z,300.85
2019-05-12T10:12:18.036Z,300.98
2019-05-12T10:13:20.264Z,300.37
2019-05-12T10:14:18.996Z,300.73
2019-05-12T10:15:26.713Z,300.96
2019-05-12T10:16:18.962Z,300.56
2019-05-12T10:17:20.425Z,300.55
2019-05-12T10:18:18.958Z,301.13
2019-05-12T10:19:17.939Z,300.33
2019-05-12T10:20:17.936Z,299.94
2019-05-12T10:21:17.932Z,299.63
2019-05-12T10:22:17.934Z,299.68
2019-05-12T10:23:20.477Z,299.32
2019-05-12T10:24:17.920Z,300.27
2019-05-12T10:25:17.877Z,299.74
2019-05-12T10:26:17.902Z,299.61
2019-05-12T10:27:21.005Z,300.08
2019-05-12T10:28:18.855Z,299.16
2019-05-12T10:29:20.589Z,299.35
2019-05-12T10:30:17.913Z,298.99
2019-05-12T10:31:18.839Z,298.95
2019-05-12T10:32:17.848Z,299.73
2019-05-12T10:33:17.845Z,298.77
2019-05-12T10:34:17.807Z,298.77
2019-05-12T10:35:24.034Z,298.75
2019-05-12T10:36:18.787Z,298.32
2019-05-12T10:37:19.272Z,298.85
2019-05-12T10:38:18.774Z,298.53
2019-05-12T10:39:17.768Z,298.04
2019-05-12T10:40:17.764Z,298.15
2019-05-12T10:41:17.755Z,298.24
2019-05-12T10:42:17.742Z,298.09
2019-05-12T10:43:17.745Z,298.46
2019-05-12T10:44:17.733Z,298.51
2019-05-12T10:45:20.514Z,298.26
2019-05-12T10:46:18.532Z,298.92
2019-05-12T10:47:18.690Z,298.48
2019-05-12T10:48:17.683Z,298.72
2019-05-12T10:49:17.671Z,298.98
2019-05-12T10:50:17.666Z,298.46
2019-05-12T10:51:17.648Z,298.74
2019-05-12T10:52:17.638Z,298.69
2019-05-12T10:53:17.936Z,298.73
2019-05-12T10:54:17.631Z,299.23
2019-05-12T10:55:17.623Z,298.42
2019-05-12T10:56:17.608Z,298.71
2019-05-12T10:57:17.595Z,298.98
2019-05-12T10:58:17.594Z,297.72
2019-05-12T10:59:30.305Z,298.57
2019-05-12T11:00:24.745Z,298.51
2019-05-12T11:01:18.562Z,298.35
2019-05-12T11:02:20.314Z,298.41
2019-05-12T11:03:18.563Z,298.62
2019-05-12T11:04:25.043Z,299.25
2019-05-12T11:05:21.567Z,298.42
2019-05-12T11:06:18.503Z,298.97
2019-05-12T11:07:17.504Z,298.37
2019-05-12T11:08:17.505Z,297.67
2019-05-12T11:09:21.376Z,297.92
2019-05-12T11:10:20.008Z,298.51
2019-05-12T11:11:17.464Z,298.42
2019-05-12T11:12:19.206Z,298.73
2019-05-12T11:13:18.466Z,299.25
2019-05-12T11:14:20.211Z,298.41
2019-05-12T11:15:18.442Z,298.72
2019-05-12T11:16:22.917Z,298.26
2019-05-12T11:17:18.408Z,298.63
2019-05-12T11:18:20.558Z,298.66
2019-05-12T11:19:18.382Z,297.46
2019-05-12T11:20:17.374Z,297.78
2019-05-12T11:21:17.377Z,298.18
2019-05-12T11:22:17.367Z,297.45
2019-05-12T11:23:17.374Z,297.72
2019-05-12T11:24:17.342Z,298.22
2019-05-12T11:25:17.336Z,298.28
2019-05-12T11:26:17.332Z,298.26
2019-05-12T11:27:17.339Z,298.39
2019-05-12T11:28:17.417Z,298.04
2019-05-12T11:29:17.296Z,297.97
2019-05-12T11:30:17.288Z,298.22
2019-05-12T11:31:17.263Z,298.34
2019-05-12T11:32:17.775Z,298.67
2019-05-12T11:33:17.296Z,299.10
2019-05-12T11:34:17.255Z,299.07
2019-05-12T11:35:17.249Z,298.95
2019-05-12T11:36:17.244Z,299.18
2019-05-12T11:37:17.224Z,299.06
2019-05-12T11:38:17.233Z,298.96
2019-05-12T11:39:17.216Z,299.41
2019-05-12T11:40:17.219Z,299.51
2019-05-12T11:41:20.268Z,298.81
2019-05-12T11:42:17.181Z,298.97
2019-05-12T11:43:17.164Z,299.20
2019-05-12T11:44:17.177Z,299.76
2019-05-12T11:45:17.160Z,299.20
2019-05-12T11:46:17.146Z,299.26
2019-05-12T11:47:24.369Z,298.80
2019-05-12T11:48:18.128Z,298.67
2019-05-12T11:49:21.770Z,298.36
2019-05-12T11:50:18.096Z,299.21
2019-05-12T11:51:20.885Z,298.71
2019-05-12T11:52:19.393Z,298.90
2019-05-12T11:53:17.085Z,299.05
2019-05-12T11:54:17.094Z,298.62
2019-05-12T11:55:21.274Z,298.48
2019-05-12T11:56:18.047Z,299.16
2019-05-12T11:57:20.023Z,298.22
2019-05-12T11:58:18.033Z,298.47
2019-05-12T11:59:17.036Z,298.42
2019-05-12T12:00:17.019Z,298.83
2019-05-12T12:01:16.989Z,298.10
2019-05-12T12:02:20.153Z,298.29
2019-05-12T12:03:18.472Z,297.88
2019-05-12T12:04:16.991Z,297.74
2019-05-12T12:05:16.979Z,298.24
2019-05-12T12:06:16.961Z,298.25
2019-05-12T12:07:16.957Z,297.98
2019-05-12T12:08:16.946Z,298.30
2019-05-12T12:09:18.878Z,297.40
2019-05-12T12:10:16.921Z,297.45
2019-05-12T12:11:24.297Z,298.75
2019-05-12T12:12:17.921Z,297.45
2019-05-12T12:13:19.229Z,297.35
2019-05-12T12:14:17.897Z,297.63
2019-05-12T12:15:20.315Z,298.01
2019-05-12T12:16:17.875Z,297.74
2019-05-12T12:17:16.878Z,297.52
2019-05-12T12:18:16.891Z,297.60
2019-05-12T12:19:16.864Z,296.78
2019-05-12T12:20:22.265Z,296.86
2019-05-12T12:21:17.821Z,296.34
2019-05-12T12:22:20.509Z,296.06
2019-05-12T12:23:17.809Z,296.50
2019-05-12T12:24:21.234Z,296.99
2019-05-12T12:25:17.798Z,296.57
2019-05-12T12:26:20.096Z,295.47
2019-05-12T12:27:16.777Z,296.27
2019-05-12T12:28:16.764Z,296.66